Corona Emblem — 3FHF8 — position and weather

sailwx.info

Track history (hours):
 
Tides and Currents Weather Stations Pressure Air Temp Water Temp Dewpoint Dewpoint Depression Visibility Wind Speed Wind Dir Waves Ship Positions

Corona Emblem

Last reported at 2014-Dec-15 16:26 UTC. Time now 2014-Dec-19 10:07 UTC.
Position N 35°02' E 139°41'.

Length 230 m; beam 36 m.

Type: Cargo ship. MMSI: 354224000.

Date/timePositionNaut miles runAvg speedWind from/ knotsBaromVisibWave heightAir tempDewpointWater temp
2014-Dec-15 16:26N 35°02' E 139°41'1012.0
2014-Dec-15 15:33N 35°12' E 139°46'1212.0
2014-Dec-15 14:33N 35°23' E 139°43'1313.3
2014-Dec-15 13:33N 35°32' E 139°55'1 0.3
2014-Dec-15 09:31N 35°32' E 139°56'4 2.0
2014-Dec-15 07:33N 35°29' E 139°53'1212.2
2014-Dec-15 06:34N 35°20' E 139°44'1110.7
2014-Dec-15 05:33N 35°09' E 139°46'10 8.7
2014-Dec-15 04:23N 34°60' E 139°42'27 9.0
2014-Dec-15 01:25N 34°52' E 140°13'  
Track history (hours):
 
Tides and Currents Weather Stations Pressure Air Temp Water Temp Dewpoint Dewpoint Depression Visibility Wind Speed Wind Dir Waves Ship Positions

Corona Emblem

Last reported at 2014-Dec-15 16:26 UTC. Time now 2014-Dec-19 10:07 UTC.
Position N 35°02' E 139°41'.

Length 230 m; beam 36 m.

Type: Cargo ship. MMSI: 354224000.

Date/timePositionNaut miles runAvg speedWind from/ knotsBaromVisibWave heightAir tempDewpointWater temp
2014-Dec-15 16:26N 35°02' E 139°41'1012.0
2014-Dec-15 15:33N 35°12' E 139°46'1212.0
2014-Dec-15 14:33N 35°23' E 139°43'1313.3
2014-Dec-15 13:33N 35°32' E 139°55'1 0.3
2014-Dec-15 09:31N 35°32' E 139°56'4 2.0
2014-Dec-15 07:33N 35°29' E 139°53'1212.2
2014-Dec-15 06:34N 35°20' E 139°44'1110.7
2014-Dec-15 05:33N 35°09' E 139°46'10 8.7
2014-Dec-15 04:23N 34°60' E 139°42'27 9.0
2014-Dec-15 01:25N 34°52' E 140°13'  

Dump ship's entire track history